Time;durP1;ratioP1;P1;durP2;ratioP2;P2;SDS_P1;SDS_P2;PMS_P1;PMS_P2;Temp;Humidity;BMP_temperature;BMP_pressure;BME280_temperature;BME280_humidity;BME280_pressure;Samples;Min_cycle;Max_cycle;Signal;HPM_P1;HPM_P2
2021/08/10 00:00:55;;;;;;;12.38;3.38;;;;;;;16.78;71.53;101580.09;4965030;28;20030;-46
2021/08/10 00:03:20;;;;;;;12.63;3.63;;;;;;;16.79;71.88;101573.94;4961872;28;20030;-46
2021/08/10 00:09:07;;;;;;;10.05;3.15;;;;;;;16.79;72.15;101573.06;4962037;28;20061;-53
2021/08/10 00:14:54;;;;;;;12.07;3.47;;;;;;;16.77;72.19;101573.06;4962956;28;20324;-47
2021/08/10 00:17:20;;;;;;;12.65;3.58;;;;;;;16.75;73.13;101569.56;4963849;28;20026;-46
2021/08/10 00:19:45;;;;;;;9.00;3.60;;;;;;;16.79;73.30;101570.44;4966200;28;20477;-46
2021/08/10 00:22:10;;;;;;;13.13;3.75;;;;;;;16.83;72.26;101572.19;4961614;28;20113;-47
2021/08/10 00:24:36;;;;;;;11.38;3.63;;;;;;;16.84;72.23;101566.03;4960277;28;20113;-53
2021/08/10 00:27:02;;;;;;;9.63;4.00;;;;;;;16.85;72.77;101573.06;4967141;28;20046;-48
2021/08/10 00:29:28;;;;;;;10.20;3.90;;;;;;;16.89;72.16;101569.56;4965851;28;20033;-47
2021/08/10 00:31:53;;;;;;;9.68;3.95;;;;;;;16.87;72.41;101569.56;4961416;28;20446;-48
2021/08/10 00:34:19;;;;;;;10.85;3.85;;;;;;;16.94;71.43;101565.16;4967887;28;20041;-47
2021/08/10 00:36:44;;;;;;;10.98;3.42;;;;;;;16.95;71.39;101564.28;4966939;28;20030;-47
2021/08/10 00:39:10;;;;;;;8.90;3.70;;;;;;;16.91;72.07;101559.88;4966546;28;20088;-48
2021/08/10 00:41:35;;;;;;;10.43;3.60;;;;;;;16.89;71.91;101556.38;4965064;28;20525;-47
2021/08/10 00:44:01;;;;;;;11.75;4.00;;;;;;;16.87;71.72;101559.03;4982952;28;20036;-49
2021/08/10 00:46:28;;;;;;;10.85;3.80;;;;;;;16.85;72.96;101557.25;4961309;28;20174;-49
2021/08/10 00:48:53;;;;;;;7.95;3.85;;;;;;;16.87;72.11;101558.13;4967065;28;20305;-47
2021/08/10 00:51:18;;;;;;;10.68;4.00;;;;;;;16.83;72.45;101554.63;4964662;28;20046;-49
2021/08/10 00:53:44;;;;;;;9.95;3.70;;;;;;;16.84;72.48;101555.50;4964523;28;20058;-46
2021/08/10 00:56:09;;;;;;;14.18;4.03;;;;;;;16.83;72.41;101557.25;4978498;28;20405;-48
2021/08/10 00:58:36;;;;;;;16.73;4.25;;;;;;;16.75;73.25;101556.41;4986215;28;20456;-48
2021/08/10 01:01:01;;;;;;;10.07;3.80;;;;;;;16.82;72.39;101550.25;4968553;28;20030;-49
2021/08/10 01:03:26;;;;;;;14.88;4.00;;;;;;;16.82;72.48;101549.38;4964489;28;20019;-49
2021/08/10 01:05:52;;;;;;;11.77;4.10;;;;;;;16.78;72.46;101548.47;4970432;28;20080;-50
2021/08/10 01:08:49;;;;;;;12.20;4.35;;;;;;;16.75;72.55;101552.88;4968045;28;20041;-50
2021/08/10 01:11:28;;;;;;;10.18;4.03;;;;;;;16.74;72.79;101553.75;4966403;28;20664;-47
2021/08/10 01:14:08;;;;;;;11.10;3.67;;;;;;;16.75;72.92;101550.25;4964033;28;20092;-46
2021/08/10 01:16:47;;;;;;;12.15;4.28;;;;;;;16.70;73.26;101547.63;4964354;28;20030;-47
2021/08/10 01:19:43;;;;;;;12.15;4.15;;;;;;;16.67;73.28;101550.25;4965870;28;20569;-47
2021/08/10 01:22:14;;;;;;;11.82;4.13;;;;;;;16.67;73.16;101550.25;4964946;28;20034;-47
2021/08/10 01:25:24;;;;;;;10.50;4.00;;;;;;;16.64;73.63;101555.53;4984594;28;20096;-49
2021/08/10 01:28:11;;;;;;;11.82;3.90;;;;;;;16.59;74.28;101546.72;4957336;28;20046;-49
2021/08/10 01:30:58;;;;;;;15.70;4.25;;;;;;;16.57;74.61;101540.59;4968347;28;20022;-50
2021/08/10 01:33:24;;;;;;;12.32;4.07;;;;;;;16.58;73.79;101548.50;4964343;28;20038;-48
2021/08/10 01:35:51;;;;;;;13.18;4.40;;;;;;;16.59;73.76;101547.63;4978725;28;20076;-50
2021/08/10 01:38:17;;;;;;;13.45;4.43;;;;;;;16.54;74.44;101548.47;4961093;28;20478;-47
2021/08/10 01:40:45;;;;;;;13.63;4.85;;;;;;;16.57;74.02;101543.22;4982171;28;20716;-46
2021/08/10 01:43:10;;;;;;;9.43;4.40;;;;;;;16.57;74.12;101545.84;4966644;28;20058;-49
2021/08/10 01:45:38;;;;;;;10.43;4.35;;;;;;;16.62;74.39;101549.38;4970393;28;20130;-48
2021/08/10 01:48:06;;;;;;;9.07;4.20;;;;;;;16.58;74.35;101545.84;4964044;28;20031;-55
2021/08/10 01:50:31;;;;;;;12.77;4.68;;;;;;;16.62;74.77;101549.38;4980208;28;20042;-49
2021/08/10 01:52:57;;;;;;;14.52;4.60;;;;;;;16.72;74.18;101547.59;4963903;28;20039;-48
2021/08/10 01:55:23;;;;;;;9.30;4.18;;;;;;;16.72;73.89;101551.13;4957759;28;20040;-46
2021/08/10 01:57:49;;;;;;;10.68;4.32;;;;;;;16.77;73.67;101546.72;4973004;28;20118;-48
2021/08/10 02:00:14;;;;;;;13.57;4.45;;;;;;;16.83;73.49;101553.75;4948135;28;20027;-52
2021/08/10 02:02:42;;;;;;;12.07;5.15;;;;;;;16.81;73.84;101555.50;4964708;28;20076;-46
2021/08/10 02:05:08;;;;;;;14.20;4.75;;;;;;;16.81;73.77;101563.41;4961845;28;20046;-48
2021/08/10 02:07:34;;;;;;;11.85;5.28;;;;;;;16.80;74.71;101552.00;4970335;28;20528;-46
2021/08/10 02:10:00;;;;;;;12.45;5.00;;;;;;;16.82;73.94;101554.63;4976209;28;20038;-46
2021/08/10 02:12:26;;;;;;;14.68;5.18;;;;;;;16.83;75.09;101556.41;4965910;28;20368;-49
2021/08/10 02:14:51;;;;;;;13.20;4.93;;;;;;;16.81;75.52;101564.28;4967344;28;20510;-46
2021/08/10 02:17:17;;;;;;;15.77;5.20;;;;;;;16.79;76.21;101567.78;4965729;28;20505;-46
2021/08/10 02:19:43;;;;;;;15.43;5.70;;;;;;;16.73;77.15;101571.31;4964436;28;20470;-46
2021/08/10 02:22:10;;;;;;;21.95;6.88;;;;;;;16.64;78.62;101568.69;4961308;28;20033;-46
2021/08/10 02:24:58;;;;;;;17.42;6.38;;;;;;;16.55;79.11;101571.28;4967751;28;20026;-46
2021/08/10 02:27:34;;;;;;;17.55;6.40;;;;;;;16.52;79.46;101560.78;4964883;28;20050;-48
2021/08/10 02:30:05;;;;;;;16.98;6.63;;;;;;;16.48;79.57;101566.91;4959746;28;20587;-47
2021/08/10 02:32:31;;;;;;;14.48;7.15;;;;;;;16.44;79.80;101565.16;4965153;28;20038;-49
2021/08/10 02:34:57;;;;;;;15.50;6.63;;;;;;;16.40;80.10;101568.66;4950585;28;20402;-47
2021/08/10 02:37:23;;;;;;;19.15;7.60;;;;;;;16.36;80.65;101566.88;4964456;28;20038;-48
2021/08/10 02:39:50;;;;;;;21.73;7.18;;;;;;;16.33;80.92;101559.00;4965119;28;20030;-47
2021/08/10 02:42:19;;;;;;;15.60;7.22;;;;;;;16.29;80.90;101565.13;4982075;28;20034;-49
2021/08/10 02:44:46;;;;;;;18.67;7.60;;;;;;;16.25;81.04;101569.53;4971187;28;20150;-47
2021/08/10 02:47:12;;;;;;;19.08;7.50;;;;;;;16.19;81.56;101566.88;4963447;28;20117;-49
2021/08/10 02:49:40;;;;;;;24.70;7.78;;;;;;;16.15;81.29;101567.75;4971575;28;20136;-48
2021/08/10 02:52:06;;;;;;;24.13;8.40;;;;;;;16.15;81.48;101571.28;4962064;28;20038;-49
2021/08/10 02:54:31;;;;;;;18.70;7.60;;;;;;;16.16;81.54;101569.53;4973276;28;20031;-51
2021/08/10 02:57:07;;;;;;;21.15;7.78;;;;;;;16.17;81.47;101569.50;4963891;28;20832;-47
2021/08/10 02:59:32;;;;;;;14.32;7.30;;;;;;;16.16;81.43;101573.00;4981216;28;20036;-47
2021/08/10 03:02:07;;;;;;;18.63;7.93;;;;;;;16.11;80.84;101574.75;4960252;28;20030;-51
2021/08/10 03:04:33;;;;;;;21.60;7.78;;;;;;;16.10;81.05;101572.16;4968522;28;20042;-47
2021/08/10 03:06:59;;;;;;;16.05;7.43;;;;;;;16.08;81.20;101566.88;4969500;28;20031;-48
2021/08/10 03:09:25;;;;;;;16.73;7.10;;;;;;;16.13;80.84;101566.88;4966913;28;20038;-53
2021/08/10 03:11:50;;;;;;;20.85;8.02;;;;;;;16.05;81.09;101563.34;4966905;28;20050;-46
2021/08/10 03:14:16;;;;;;;17.35;7.75;;;;;;;16.04;81.02;101562.47;4964293;28;20030;-46
2021/08/10 03:16:42;;;;;;;17.63;7.63;;;;;;;16.06;80.81;101565.97;4966316;28;20034;-47
2021/08/10 03:19:10;;;;;;;18.88;8.30;;;;;;;16.06;81.33;101573.88;4960720;28;20035;-48
2021/08/10 03:21:36;;;;;;;22.73;8.32;;;;;;;16.07;81.15;101573.00;4975640;28;20533;-47
2021/08/10 03:24:04;;;;;;;16.98;8.10;;;;;;;16.08;80.82;101572.13;4963388;28;20022;-47
2021/08/10 03:26:30;;;;;;;20.50;8.63;;;;;;;16.01;81.20;101567.72;4969217;28;20445;-49
2021/08/10 03:28:56;;;;;;;16.00;7.40;;;;;;;16.05;81.21;101569.47;4963260;28;20358;-49
2021/08/10 03:31:22;;;;;;;17.92;7.90;;;;;;;15.97;81.36;101568.59;4963005;28;20034;-48
2021/08/10 03:33:48;;;;;;;18.88;8.40;;;;;;;15.98;81.27;101566.84;4960251;28;20149;-49
2021/08/10 03:36:14;;;;;;;18.40;8.77;;;;;;;15.93;81.77;101566.81;4961083;28;20458;-51
2021/08/10 03:38:40;;;;;;;21.55;8.98;;;;;;;15.92;82.06;101569.47;4966163;28;20459;-46
2021/08/10 03:41:06;;;;;;;23.70;9.43;;;;;;;15.89;81.92;101572.97;4965781;28;20032;-47
2021/08/10 03:43:33;;;;;;;18.10;8.90;;;;;;;15.86;82.11;101572.09;4980210;28;20027;-48
2021/08/10 03:45:59;;;;;;;20.95;9.15;;;;;;;15.87;81.73;101565.94;4966160;28;20157;-48
2021/08/10 03:48:25;;;;;;;22.70;9.80;;;;;;;15.86;81.60;101572.09;4959389;28;20421;-50
2021/08/10 03:50:52;;;;;;;23.10;9.52;;;;;;;15.82;81.54;101574.69;4963976;28;20073;-51
2021/08/10 03:53:20;;;;;;;28.17;9.63;;;;;;;15.80;81.25;101575.53;4972563;28;20965;-52
2021/08/10 03:55:48;;;;;;;26.02;9.70;;;;;;;15.73;81.43;101572.06;4966832;28;20037;-46
2021/08/10 03:58:13;;;;;;;18.95;9.43;;;;;;;15.74;81.19;101572.91;4962262;28;20030;-49
2021/08/10 04:00:39;;;;;;;23.50;9.75;;;;;;;15.75;81.34;101582.53;4964405;28;20101;-46
2021/08/10 04:03:09;;;;;;;26.35;10.45;;;;;;;15.69;81.85;101574.63;4957451;28;20667;-47
2021/08/10 04:05:39;;;;;;;21.20;8.90;;;;;;;15.71;81.49;101568.53;4965186;28;20049;-51
2021/08/10 04:08:08;;;;;;;24.50;10.77;;;;;;;15.63;81.83;101579.88;4964154;28;20027;-46
2021/08/10 04:10:34;;;;;;;26.83;9.85;;;;;;;15.61;81.96;101571.13;4965779;28;20118;-48
2021/08/10 04:12:59;;;;;;;19.98;8.95;;;;;;;15.59;81.85;101576.38;4960939;28;20030;-49
2021/08/10 04:15:24;;;;;;;28.73;10.65;;;;;;;15.58;81.92;101574.59;4974840;28;20037;-51
2021/08/10 04:17:51;;;;;;;26.25;10.32;;;;;;;15.56;82.26;101578.09;4960853;28;20629;-46
2021/08/10 04:20:18;;;;;;;28.58;10.43;;;;;;;15.53;82.55;101571.09;4971752;28;20033;-49
2021/08/10 04:22:44;;;;;;;28.70;11.30;;;;;;;15.55;82.53;101576.34;4964691;28;20038;-47
2021/08/10 04:25:09;;;;;;;23.13;10.75;;;;;;;15.56;82.53;101575.47;4959852;28;20098;-47
2021/08/10 04:27:35;;;;;;;27.70;11.52;;;;;;;15.55;82.57;101573.72;4965623;28;20469;-48
2021/08/10 04:30:00;;;;;;;27.10;11.30;;;;;;;15.58;83.09;101577.22;4964364;28;20041;-47
2021/08/10 04:32:26;;;;;;;29.83;11.02;;;;;;;15.60;82.77;101572.88;4967569;28;20050;-50
2021/08/10 04:34:51;;;;;;;19.77;10.48;;;;;;;15.58;82.45;101585.13;4969577;28;20057;-48
2021/08/10 04:37:16;;;;;;;19.77;9.82;;;;;;;15.57;82.17;101582.47;4963361;28;20043;-48
2021/08/10 04:39:42;;;;;;;28.48;10.85;;;;;;;15.59;82.04;101588.63;4982911;28;20030;-48
2021/08/10 04:42:07;;;;;;;25.58;10.82;;;;;;;15.58;82.38;101584.25;4968033;28;20127;-47
2021/08/10 04:44:32;;;;;;;24.90;11.50;;;;;;;15.57;82.08;101587.72;4966747;28;20030;-47
2021/08/10 04:46:58;;;;;;;32.33;10.95;;;;;;;15.55;82.12;101584.25;4972925;28;20577;-47
2021/08/10 04:49:23;;;;;;;26.55;10.82;;;;;;;15.59;81.93;101586.00;4968540;28;20022;-47
2021/08/10 04:51:48;;;;;;;24.33;10.63;;;;;;;15.59;81.97;101576.38;4970644;28;20097;-47
2021/08/10 04:54:16;;;;;;;26.48;10.82;;;;;;;15.63;82.03;101588.63;4971608;28;20085;-48
2021/08/10 04:56:42;;;;;;;20.70;10.88;;;;;;;15.67;81.65;101584.28;4968926;28;20528;-46
2021/08/10 04:59:07;;;;;;;24.98;11.07;;;;;;;15.78;81.52;101580.81;4970964;28;20046;-47
2021/08/10 05:01:32;;;;;;;27.02;10.75;;;;;;;15.86;81.37;101579.97;4967603;28;20032;-48
2021/08/10 05:03:58;;;;;;;22.55;10.50;;;;;;;15.99;80.95;101584.38;4972379;28;20407;-46
2021/08/10 05:06:23;;;;;;;22.85;10.85;;;;;;;16.02;80.66;101589.66;4968318;28;20034;-47
2021/08/10 05:08:48;;;;;;;21.77;10.93;;;;;;;16.09;80.34;101589.69;4964509;28;20443;-46
2021/08/10 05:11:14;;;;;;;22.70;10.75;;;;;;;16.17;80.13;101592.28;4965130;28;21075;-48
2021/08/10 05:13:39;;;;;;;19.27;9.88;;;;;;;16.23;79.94;101587.94;4967563;28;20509;-46
2021/08/10 05:16:05;;;;;;;19.67;10.52;;;;;;;16.27;79.98;101591.47;4968883;28;20181;-49
2021/08/10 05:18:30;;;;;;;23.30;10.38;;;;;;;16.44;79.18;101592.34;4966937;28;20533;-46
2021/08/10 05:20:56;;;;;;;27.40;10.02;;;;;;;16.69;78.92;101589.75;4961645;28;20033;-47
2021/08/10 05:23:21;;;;;;;22.58;9.75;;;;;;;16.74;78.45;101588.88;4964437;28;20719;-46
2021/08/10 05:25:47;;;;;;;18.35;9.50;;;;;;;16.72;78.63;101590.63;4966676;28;20031;-48
2021/08/10 05:28:12;;;;;;;21.30;9.35;;;;;;;16.89;78.21;101578.34;4964053;28;20051;-47
2021/08/10 05:30:37;;;;;;;19.00;9.18;;;;;;;16.99;77.49;101587.97;4961726;28;21603;-47
2021/08/10 05:33:03;;;;;;;20.23;8.70;;;;;;;17.02;76.97;101589.72;4968600;28;20063;-47
2021/08/10 05:35:28;;;;;;;17.15;8.73;;;;;;;17.12;76.73;101593.22;4963232;28;20097;-47
2021/08/10 05:37:53;;;;;;;19.75;9.45;;;;;;;17.15;76.74;101587.94;4967965;28;21160;-47
2021/08/10 05:40:20;;;;;;;18.88;8.93;;;;;;;17.25;76.95;101597.59;4962880;28;20211;-46
2021/08/10 05:42:45;;;;;;;19.92;8.63;;;;;;;17.44;76.02;101594.88;4969480;28;20034;-48
2021/08/10 05:45:11;;;;;;;16.02;8.00;;;;;;;17.57;75.62;101594.81;4963276;28;20126;-48
2021/08/10 05:47:36;;;;;;;16.02;8.10;;;;;;;17.70;75.66;101592.16;4982501;28;20780;-46
2021/08/10 05:50:02;;;;;;;16.35;7.88;;;;;;;17.85;75.68;101596.50;4965100;28;20030;-47
2021/08/10 05:52:27;;;;;;;18.55;8.23;;;;;;;17.92;75.88;101600.00;4961286;28;20033;-47
2021/08/10 05:54:52;;;;;;;15.68;7.15;;;;;;;18.11;74.33;101604.28;4968205;28;20561;-51
2021/08/10 05:57:18;;;;;;;17.13;8.30;;;;;;;18.29;74.60;101603.28;4960982;28;20128;-48
2021/08/10 05:59:44;;;;;;;20.75;7.90;;;;;;;18.56;73.42;101597.84;4971441;28;20025;-48
2021/08/10 06:02:09;;;;;;;15.40;7.20;;;;;;;18.83;72.98;101594.97;4965247;28;21676;-48
2021/08/10 06:04:35;;;;;;;19.15;7.05;;;;;;;19.09;71.66;101597.34;4970366;28;20046;-50
2021/08/10 06:07:03;;;;;;;16.80;7.03;;;;;;;19.21;71.68;101609.59;4964251;28;20030;-49
2021/08/10 06:09:28;;;;;;;14.77;6.95;;;;;;;19.31;71.86;101606.81;4967999;28;20520;-47
2021/08/10 06:11:54;;;;;;;17.92;6.90;;;;;;;19.31;70.46;101603.28;4964726;28;20092;-51
2021/08/10 06:14:19;;;;;;;18.73;7.28;;;;;;;19.13;71.09;101608.78;4966894;28;20058;-46
2021/08/10 06:16:45;;;;;;;15.65;7.28;;;;;;;18.89;72.17;101607.25;4971129;28;20089;-48
2021/08/10 06:19:10;;;;;;;14.45;7.43;;;;;;;18.85;71.33;101606.38;4967317;28;20025;-50
2021/08/10 06:21:36;;;;;;;14.90;7.22;;;;;;;19.43;70.29;101604.03;4963818;28;20474;-50
2021/08/10 06:24:01;;;;;;;16.50;7.50;;;;;;;19.78;69.36;101606.28;4962988;28;20529;-48
2021/08/10 06:26:27;;;;;;;16.55;7.07;;;;;;;20.49;67.22;101607.03;4976901;28;20034;-47
2021/08/10 06:28:53;;;;;;;12.43;6.25;;;;;;;21.34;65.20;101602.94;4965697;28;20050;-49
2021/08/10 06:31:19;;;;;;;12.95;6.78;;;;;;;21.22;63.84;101602.28;4965816;28;20034;-47
2021/08/10 06:33:44;;;;;;;12.52;6.63;;;;;;;20.69;64.34;101601.41;4963517;28;20200;-48
2021/08/10 06:36:10;;;;;;;13.18;6.90;;;;;;;20.18;65.63;101596.03;4962020;28;20042;-46
2021/08/10 06:38:35;;;;;;;15.40;7.18;;;;;;;19.70;67.94;101594.91;4969978;28;20376;-46
2021/08/10 06:41:01;;;;;;;16.20;8.07;;;;;;;19.23;70.29;101605.13;4958424;28;20037;-47
2021/08/10 06:43:26;;;;;;;18.02;8.00;;;;;;;18.88;70.70;101613.41;4969053;28;20366;-46
2021/08/10 06:45:52;;;;;;;16.23;8.55;;;;;;;18.60;72.62;101615.44;4969048;28;20038;-47
2021/08/10 06:48:18;;;;;;;17.02;8.85;;;;;;;18.40;73.35;101615.53;4964073;28;20090;-51
2021/08/10 06:50:43;;;;;;;18.05;8.93;;;;;;;18.15;75.08;101621.84;4961009;28;21242;-47
2021/08/10 06:53:09;;;;;;;16.15;9.98;;;;;;;17.91;76.36;101628.13;4959599;28;20176;-46
2021/08/10 06:55:34;;;;;;;18.67;10.02;;;;;;;17.83;76.91;101633.44;4966393;28;20376;-51
2021/08/10 06:57:59;;;;;;;17.85;10.18;;;;;;;17.72;77.76;101621.19;4962953;28;20607;-45
2021/08/10 07:00:25;;;;;;;20.33;10.43;;;;;;;17.63;77.92;101624.72;4960419;28;20129;-48
2021/08/10 07:02:51;;;;;;;21.60;11.40;;;;;;;17.55;78.33;101622.97;4968464;28;20350;-47
2021/08/10 07:05:16;;;;;;;20.55;11.00;;;;;;;17.42;78.45;101625.66;4963275;28;20062;-47
2021/08/10 07:07:42;;;;;;;22.52;11.52;;;;;;;17.34;79.40;101630.06;4959034;28;20034;-49
2021/08/10 07:10:08;;;;;;;21.02;11.63;;;;;;;17.30;79.76;101619.53;4962741;28;20077;-46
2021/08/10 07:12:33;;;;;;;23.40;12.27;;;;;;;17.20;79.50;101629.19;4963649;28;20126;-47
2021/08/10 07:14:58;;;;;;;26.85;12.27;;;;;;;17.15;80.55;101630.97;4959402;28;20038;-52
2021/08/10 07:17:24;;;;;;;23.00;11.80;;;;;;;17.13;80.38;101630.09;4963857;28;20486;-47
2021/08/10 07:19:49;;;;;;;25.30;12.55;;;;;;;17.00;80.93;101629.25;4963735;28;20084;-50
2021/08/10 07:22:15;;;;;;;24.95;12.65;;;;;;;17.00;81.49;101631.00;4964906;28;20076;-48
2021/08/10 07:24:40;;;;;;;27.75;13.15;;;;;;;17.00;81.94;101637.16;4965635;28;20034;-48
2021/08/10 07:27:05;;;;;;;27.40;13.25;;;;;;;17.05;81.17;101639.78;4953954;28;20136;-46
2021/08/10 07:29:31;;;;;;;25.00;13.57;;;;;;;17.02;81.05;101642.38;4955672;28;20785;-49
2021/08/10 07:31:56;;;;;;;24.67;11.40;;;;;;;17.07;81.01;101645.94;4960562;28;20465;-48
2021/08/10 07:34:22;;;;;;;23.83;13.18;;;;;;;17.01;81.56;101649.44;4962355;28;20088;-46
2021/08/10 07:36:47;;;;;;;29.70;13.98;;;;;;;16.90;82.14;101642.41;4962276;28;20035;-50
2021/08/10 07:39:13;;;;;;;29.40;14.25;;;;;;;16.90;82.93;101642.41;4960491;28;20054;-51
2021/08/10 07:41:38;;;;;;;27.48;13.73;;;;;;;16.89;82.55;101649.44;4961040;28;20077;-50
2021/08/10 07:44:04;;;;;;;25.85;13.02;;;;;;;16.86;82.87;101635.38;4960585;28;20516;-50
2021/08/10 07:46:29;;;;;;;26.92;14.30;;;;;;;16.93;82.44;101642.41;4966260;28;21171;-47
2021/08/10 07:48:55;;;;;;;27.10;12.85;;;;;;;16.99;82.42;101638.03;4959753;28;20026;-47
2021/08/10 07:51:20;;;;;;;24.77;12.50;;;;;;;17.03;82.43;101644.16;4959432;28;20041;-48
2021/08/10 07:53:46;;;;;;;25.35;12.10;;;;;;;17.00;82.02;101652.97;4981425;28;20023;-46
2021/08/10 07:56:12;;;;;;;25.40;12.73;;;;;;;17.04;82.26;101657.34;4964543;28;20213;-48
2021/08/10 07:58:38;;;;;;;24.67;12.10;;;;;;;17.06;82.56;101664.38;4962606;28;20122;-48
2021/08/10 08:01:04;;;;;;;22.52;12.27;;;;;;;17.05;82.66;101663.47;4962902;28;20088;-48
2021/08/10 08:03:29;;;;;;;20.17;11.07;;;;;;;17.07;82.55;101660.84;4968977;28;20085;-51
2021/08/10 08:05:55;;;;;;;18.65;11.05;;;;;;;17.10;82.38;101655.56;4971997;28;20461;-47
2021/08/10 08:08:22;;;;;;;22.58;10.88;;;;;;;17.14;82.68;101650.28;4968851;28;20564;-49
2021/08/10 08:10:47;;;;;;;20.70;10.63;;;;;;;17.18;82.66;101656.44;4965482;28;20315;-51
2021/08/10 08:13:12;;;;;;;24.80;10.98;;;;;;;17.17;82.15;101641.50;4967966;28;20038;-49
2021/08/10 08:15:38;;;;;;;19.13;10.73;;;;;;;17.12;82.69;101654.69;4967463;28;20109;-46
2021/08/10 08:18:03;;;;;;;23.83;11.75;;;;;;;17.08;82.64;101652.06;4964145;28;20107;-47
2021/08/10 08:20:28;;;;;;;24.50;11.27;;;;;;;17.15;83.04;101646.78;4969182;28;20022;-48
2021/08/10 08:22:54;;;;;;;20.17;10.52;;;;;;;17.26;82.64;101652.91;4963978;28;20029;-48
2021/08/10 08:25:19;;;;;;;18.25;9.30;;;;;;;17.30;82.15;101657.31;4968493;28;20119;-50
2021/08/10 08:27:45;;;;;;;18.20;9.77;;;;;;;17.29;81.68;101652.03;4963266;28;20125;-48
2021/08/10 08:30:13;;;;;;;19.00;9.48;;;;;;;17.27;81.38;101649.38;4965327;28;20030;-48
2021/08/10 08:32:39;;;;;;;19.02;9.93;;;;;;;17.31;81.64;101656.44;4968239;28;20026;-47
2021/08/10 08:35:05;;;;;;;17.42;9.57;;;;;;;17.48;81.53;101668.69;4963570;28;20544;-46
2021/08/10 08:37:30;;;;;;;18.48;9.60;;;;;;;17.68;81.08;101657.25;4966380;28;20414;-47
2021/08/10 08:39:55;;;;;;;16.13;9.18;;;;;;;17.87;80.63;101659.81;4962402;28;20022;-47
2021/08/10 08:42:22;;;;;;;19.60;10.90;;;;;;;18.15;80.88;101650.88;4966357;28;20088;-48
2021/08/10 08:44:48;;;;;;;20.67;12.48;;;;;;;18.93;82.01;101657.41;4964589;28;20566;-50
2021/08/10 08:47:19;;;;;;;17.38;8.77;;;;;;;19.76;80.37;101647.75;4966374;28;20025;-49
2021/08/10 08:49:47;;;;;;;17.63;9.23;;;;;;;20.48;77.17;101653.00;4966575;28;20054;-49
2021/08/10 08:52:13;;;;;;;16.00;7.60;;;;;;;20.81;74.72;101648.91;4967891;28;20525;-49
2021/08/10 08:54:39;;;;;;;11.93;6.95;;;;;;;20.92;73.20;101654.06;4980963;28;20038;-47
2021/08/10 08:57:05;;;;;;;15.93;6.80;;;;;;;20.82;72.78;101652.44;4973796;28;20026;-50
2021/08/10 08:59:31;;;;;;;15.70;6.90;;;;;;;20.56;72.62;101656.38;4980178;28;20695;-49
2021/08/10 09:01:56;;;;;;;12.07;6.57;;;;;;;20.33;72.66;101655.84;4951417;28;20027;-47
2021/08/10 09:04:22;;;;;;;13.80;6.32;;;;;;;20.21;72.61;101661.28;4963048;28;20044;-49
2021/08/10 09:06:48;;;;;;;17.02;7.10;;;;;;;20.08;74.55;101662.34;4969221;28;20057;-49
2021/08/10 09:09:24;;;;;;;11.65;6.13;;;;;;;20.17;73.75;101651.66;4962642;28;20449;-46
2021/08/10 09:12:00;;;;;;;13.00;6.25;;;;;;;20.43;74.31;101665.41;4966770;28;20057;-46
2021/08/10 09:14:43;;;;;;;12.45;5.50;;;;;;;20.62;71.54;101666.88;4967611;28;20081;-46
2021/08/10 09:17:15;;;;;;;13.60;5.90;;;;;;;20.54;72.15;101667.91;4971501;28;20450;-47
2021/08/10 09:19:52;;;;;;;14.10;6.00;;;;;;;20.52;73.55;101664.41;4961109;28;20038;-50
2021/08/10 09:22:26;;;;;;;13.07;5.68;;;;;;;20.50;73.16;101663.53;4981458;28;20552;-49
2021/08/10 09:25:05;;;;;;;13.23;5.55;;;;;;;20.78;74.21;101669.31;4959943;28;20038;-47
2021/08/10 09:27:40;;;;;;;15.00;6.15;;;;;;;21.33;73.37;101674.56;4978530;28;20081;-49
2021/08/10 09:30:08;;;;;;;11.75;5.55;;;;;;;21.70;71.00;101667.66;4960601;28;20482;-49
2021/08/10 09:32:34;;;;;;;17.55;5.68;;;;;;;22.07;70.10;101672.25;4964399;28;20018;-48
2021/08/10 09:35:17;;;;;;;15.30;5.50;;;;;;;22.48;69.18;101666.88;4961128;28;20431;-48
2021/08/10 09:38:04;;;;;;;16.10;4.90;;;;;;;22.62;64.84;101678.06;4962797;28;20036;-47
2021/08/10 09:40:53;;;;;;;12.07;4.82;;;;;;;22.71;65.10;101676.09;4967196;28;20061;-48
2021/08/10 09:43:19;;;;;;;10.65;4.75;;;;;;;22.86;64.19;101676.63;4963774;28;20474;-49
2021/08/10 09:45:44;;;;;;;13.32;4.75;;;;;;;22.86;64.86;101673.97;4971827;28;20033;-48
2021/08/10 09:48:14;;;;;;;16.50;5.07;;;;;;;22.85;62.77;101674.00;4967026;28;20033;-51
2021/08/10 09:50:39;;;;;;;11.40;5.05;;;;;;;22.64;65.13;101673.56;4968085;28;20030;-48
2021/08/10 09:53:19;;;;;;;9.73;4.57;;;;;;;22.29;65.32;101676.19;4965650;28;20109;-47
2021/08/10 09:55:58;;;;;;;11.90;4.63;;;;;;;22.24;63.73;101678.06;4964292;28;20038;-49
2021/08/10 09:58:23;;;;;;;8.07;4.13;;;;;;;22.12;63.39;101678.34;4967058;28;20057;-49
2021/08/10 10:00:50;;;;;;;11.68;4.57;;;;;;;22.26;65.69;101674.44;4958510;28;20102;-47
2021/08/10 10:03:18;;;;;;;7.72;4.18;;;;;;;22.53;63.71;101672.97;4970757;28;20428;-46
2021/08/10 10:05:44;;;;;;;10.25;4.20;;;;;;;22.76;64.86;101674.22;4961024;28;20054;-48
2021/08/10 10:08:20;;;;;;;9.50;4.30;;;;;;;22.63;60.91;101677.13;4965722;28;20038;-50
2021/08/10 10:10:47;;;;;;;9.70;4.05;;;;;;;22.50;62.56;101683.66;4957027;28;20027;-47
2021/08/10 10:13:15;;;;;;;9.88;4.07;;;;;;;22.40;62.78;101683.91;4967319;28;20022;-48
2021/08/10 10:15:42;;;;;;;8.95;3.78;;;;;;;22.55;62.92;101676.47;4961151;28;20520;-46
2021/08/10 10:18:08;;;;;;;7.50;3.80;;;;;;;22.77;62.56;101676.84;4963871;28;20050;-47
2021/08/10 10:20:40;;;;;;;9.25;4.25;;;;;;;22.89;60.02;101679.19;4946412;28;20189;-50
2021/08/10 10:23:08;;;;;;;9.05;4.00;;;;;;;22.80;59.99;101673.25;4956393;28;20088;-50
2021/08/10 10:25:33;;;;;;;8.88;3.85;;;;;;;22.50;61.25;101682.78;4954799;28;20141;-46
2021/08/10 10:27:59;;;;;;;10.65;4.18;;;;;;;22.42;60.53;101682.97;4965525;28;20113;-50
2021/08/10 10:30:26;;;;;;;6.72;3.50;;;;;;;22.16;60.34;101680.00;4963641;28;20038;-48
2021/08/10 10:32:52;;;;;;;9.88;3.90;;;;;;;22.07;62.06;101678.44;4964127;28;20034;-48
2021/08/10 10:35:18;;;;;;;10.55;4.20;;;;;;;22.08;63.42;101676.66;4961242;28;20038;-47
2021/08/10 10:37:45;;;;;;;9.98;3.97;;;;;;;22.31;62.66;101677.03;4969668;28;20037;-47
2021/08/10 10:40:12;;;;;;;7.50;3.80;;;;;;;22.59;60.61;101678.13;4959173;28;20030;-48
2021/08/10 10:42:38;;;;;;;10.35;3.80;;;;;;;22.64;60.64;101678.00;4964934;28;20488;-47
2021/08/10 10:45:04;;;;;;;10.55;3.75;;;;;;;22.75;60.38;101683.97;4975241;28;20978;-47
2021/08/10 10:47:34;;;;;;;10.18;3.88;;;;;;;22.91;57.76;101681.84;4962087;28;20022;-48
2021/08/10 10:49:59;;;;;;;9.77;3.97;;;;;;;23.16;60.29;101682.09;4975474;28;20034;-49
2021/08/10 10:52:26;;;;;;;10.55;3.75;;;;;;;23.48;57.06;101673.28;4961764;28;20066;-49
2021/08/10 10:54:53;;;;;;;7.78;3.63;;;;;;;23.42;55.48;101680.47;4967798;28;20045;-49
2021/08/10 10:57:33;;;;;;;9.35;3.90;;;;;;;23.16;57.47;101687.41;4959584;28;20038;-46
2021/08/10 11:00:04;;;;;;;10.63;4.22;;;;;;;22.75;58.75;101693.75;4965588;28;20069;-48
2021/08/10 11:02:36;;;;;;;7.18;3.80;;;;;;;22.64;57.77;101678.88;4959559;28;20054;-50
2021/08/10 11:05:17;;;;;;;7.88;3.90;;;;;;;22.89;59.39;101683.66;4962167;28;20276;-49
2021/08/10 11:07:53;;;;;;;8.73;3.80;;;;;;;23.22;56.24;101687.25;4968816;28;20162;-50
2021/08/10 11:10:34;;;;;;;8.77;3.90;;;;;;;23.40;57.65;101689.44;4965387;28;20129;-46
2021/08/10 11:12:59;;;;;;;8.38;3.60;;;;;;;23.23;57.84;101689.88;4953238;28;20466;-47
2021/08/10 11:15:46;;;;;;;7.70;3.70;;;;;;;23.01;56.48;101683.34;4959178;28;20033;-48
2021/08/10 11:18:12;;;;;;;6.40;3.45;;;;;;;22.76;54.82;101679.53;4964902;28;20124;-48
2021/08/10 11:20:38;;;;;;;8.73;3.53;;;;;;;22.53;56.79;101691.56;4963540;28;20113;-48
2021/08/10 11:23:19;;;;;;;8.95;3.97;;;;;;;22.50;56.27;101685.47;4964778;28;20132;-48
2021/08/10 11:25:58;;;;;;;8.30;3.88;;;;;;;22.64;58.69;101683.31;4973182;28;20113;-46